<?xml version="1.0" encoding="UTF-8" standalone="no" ?>
<gpx xmlns="http://www.topografix.com/GPX/1/1" xmlns:xsi="http://www.w3.org/2001/XMLSchema-instance" xsi:schemaLocation="http://www.topografix.com/GPX/1/1 http://www.topografix.com/GPX/1/1/gpx.xsd" version="1.1" creator="VisuGPX - https://www.visugpx.com">
  <metadata>
    <name>Bords de Vienne 30/03/2026 à 14:04</name>
  </metadata>
  <wpt lat="45.83123" lon="1.27295">
    <ele>273</ele>
    <name><![CDATA[Point de passage 1]]></name>
    <type><![CDATA[GENERIC]]></type>
  </wpt>
  <wpt lat="45.83103" lon="1.27261">
    <ele>272</ele>
    <name><![CDATA[Point de passage 2]]></name>
    <type><![CDATA[GENERIC]]></type>
  </wpt>
  <trk>
    <name><![CDATA[Randonnée du 30/03/2026 à 14:04]]></name>
    <trkseg>
      <trkpt lat="45.83123" lon="1.27295">
        <ele>273</ele>
        <time>2026-03-30T12:04:24.000Z</time>
      </trkpt>
      <trkpt lat="45.83121" lon="1.27292">
        <ele>273</ele>
        <time>2026-03-30T12:04:26.000Z</time>
      </trkpt>
      <trkpt lat="45.83113" lon="1.27278">
        <ele>273</ele>
        <time>2026-03-30T12:04:48.000Z</time>
      </trkpt>
      <trkpt lat="45.83107" lon="1.2726">
        <ele>273</ele>
        <time>2026-03-30T12:05:06.000Z</time>
      </trkpt>
      <trkpt lat="45.83098" lon="1.27245">
        <ele>272</ele>
        <time>2026-03-30T12:05:19.000Z</time>
      </trkpt>
      <trkpt lat="45.83087" lon="1.27232">
        <ele>272</ele>
        <time>2026-03-30T12:05:39.000Z</time>
      </trkpt>
      <trkpt lat="45.83074" lon="1.27228">
        <ele>272</ele>
        <time>2026-03-30T12:06:05.000Z</time>
      </trkpt>
      <trkpt lat="45.83061" lon="1.2722">
        <ele>272</ele>
        <time>2026-03-30T12:06:29.000Z</time>
      </trkpt>
      <trkpt lat="45.83051" lon="1.27206">
        <ele>272</ele>
        <time>2026-03-30T12:06:42.000Z</time>
      </trkpt>
      <trkpt lat="45.8304" lon="1.27192">
        <ele>272</ele>
        <time>2026-03-30T12:07:02.000Z</time>
      </trkpt>
      <trkpt lat="45.83031" lon="1.27176">
        <ele>272</ele>
        <time>2026-03-30T12:07:49.000Z</time>
      </trkpt>
      <trkpt lat="45.83025" lon="1.27158">
        <ele>272</ele>
        <time>2026-03-30T12:07:59.000Z</time>
      </trkpt>
      <trkpt lat="45.83015" lon="1.27145">
        <ele>273</ele>
        <time>2026-03-30T12:08:15.000Z</time>
      </trkpt>
      <trkpt lat="45.83002" lon="1.27135">
        <ele>273</ele>
        <time>2026-03-30T12:08:36.000Z</time>
      </trkpt>
      <trkpt lat="45.82996" lon="1.27118">
        <ele>272</ele>
        <time>2026-03-30T12:08:49.000Z</time>
      </trkpt>
      <trkpt lat="45.82989" lon="1.27101">
        <ele>272</ele>
        <time>2026-03-30T12:09:07.000Z</time>
      </trkpt>
      <trkpt lat="45.8298" lon="1.27085">
        <ele>272</ele>
        <time>2026-03-30T12:09:35.000Z</time>
      </trkpt>
      <trkpt lat="45.82971" lon="1.2707">
        <ele>272</ele>
        <time>2026-03-30T12:09:43.000Z</time>
      </trkpt>
      <trkpt lat="45.82966" lon="1.27051">
        <ele>272</ele>
        <time>2026-03-30T12:09:57.000Z</time>
      </trkpt>
      <trkpt lat="45.82964" lon="1.27031">
        <ele>273</ele>
        <time>2026-03-30T12:10:12.000Z</time>
      </trkpt>
      <trkpt lat="45.82957" lon="1.27011">
        <ele>274</ele>
        <time>2026-03-30T12:10:42.000Z</time>
      </trkpt>
      <trkpt lat="45.8295" lon="1.26995">
        <ele>274</ele>
        <time>2026-03-30T12:10:53.000Z</time>
      </trkpt>
      <trkpt lat="45.82938" lon="1.26986">
        <ele>273</ele>
        <time>2026-03-30T12:11:10.000Z</time>
      </trkpt>
      <trkpt lat="45.82926" lon="1.26976">
        <ele>273</ele>
        <time>2026-03-30T12:11:27.000Z</time>
      </trkpt>
      <trkpt lat="45.82915" lon="1.26964">
        <ele>272</ele>
        <time>2026-03-30T12:12:03.000Z</time>
      </trkpt>
      <trkpt lat="45.82905" lon="1.26948">
        <ele>272</ele>
        <time>2026-03-30T12:12:20.000Z</time>
      </trkpt>
      <trkpt lat="45.82894" lon="1.26936">
        <ele>273</ele>
        <time>2026-03-30T12:12:39.000Z</time>
      </trkpt>
      <trkpt lat="45.82881" lon="1.26932">
        <ele>273</ele>
        <time>2026-03-30T12:12:59.000Z</time>
      </trkpt>
      <trkpt lat="45.82868" lon="1.26922">
        <ele>273</ele>
        <time>2026-03-30T12:13:18.000Z</time>
      </trkpt>
      <trkpt lat="45.82857" lon="1.26912">
        <ele>275</ele>
        <time>2026-03-30T12:13:37.000Z</time>
      </trkpt>
      <trkpt lat="45.82846" lon="1.26903">
        <ele>276</ele>
        <time>2026-03-30T12:14:11.000Z</time>
      </trkpt>
      <trkpt lat="45.82834" lon="1.26894">
        <ele>278</ele>
        <time>2026-03-30T12:14:28.000Z</time>
      </trkpt>
      <trkpt lat="45.82821" lon="1.26888">
        <ele>280</ele>
        <time>2026-03-30T12:14:45.000Z</time>
      </trkpt>
      <trkpt lat="45.82809" lon="1.26878">
        <ele>281</ele>
        <time>2026-03-30T12:14:58.000Z</time>
      </trkpt>
      <trkpt lat="45.82796" lon="1.2687">
        <ele>283</ele>
        <time>2026-03-30T12:15:12.000Z</time>
      </trkpt>
      <trkpt lat="45.82783" lon="1.2686">
        <ele>282</ele>
        <time>2026-03-30T12:15:23.000Z</time>
      </trkpt>
      <trkpt lat="45.82772" lon="1.26847">
        <ele>281</ele>
        <time>2026-03-30T12:15:32.000Z</time>
      </trkpt>
      <trkpt lat="45.82761" lon="1.26836">
        <ele>279</ele>
        <time>2026-03-30T12:15:42.000Z</time>
      </trkpt>
      <trkpt lat="45.82749" lon="1.26824">
        <ele>277</ele>
        <time>2026-03-30T12:15:50.000Z</time>
      </trkpt>
      <trkpt lat="45.82735" lon="1.26818">
        <ele>276</ele>
        <time>2026-03-30T12:16:02.000Z</time>
      </trkpt>
      <trkpt lat="45.82722" lon="1.26814">
        <ele>276</ele>
        <time>2026-03-30T12:16:14.000Z</time>
      </trkpt>
      <trkpt lat="45.82712" lon="1.26802">
        <ele>275</ele>
        <time>2026-03-30T12:16:23.000Z</time>
      </trkpt>
      <trkpt lat="45.82699" lon="1.26786">
        <ele>276</ele>
        <time>2026-03-30T12:16:33.000Z</time>
      </trkpt>
      <trkpt lat="45.82668" lon="1.26772">
        <ele>276</ele>
        <time>2026-03-30T12:16:44.000Z</time>
      </trkpt>
      <trkpt lat="45.82651" lon="1.26762">
        <ele>277</ele>
        <time>2026-03-30T12:16:46.000Z</time>
      </trkpt>
      <trkpt lat="45.82637" lon="1.26756">
        <ele>279</ele>
        <time>2026-03-30T12:16:50.000Z</time>
      </trkpt>
      <trkpt lat="45.82625" lon="1.26751">
        <ele>278</ele>
        <time>2026-03-30T12:17:03.000Z</time>
      </trkpt>
      <trkpt lat="45.82611" lon="1.26754">
        <ele>277</ele>
        <time>2026-03-30T12:17:21.000Z</time>
      </trkpt>
      <trkpt lat="45.82596" lon="1.26754">
        <ele>277</ele>
        <time>2026-03-30T12:17:38.000Z</time>
      </trkpt>
      <trkpt lat="45.82579" lon="1.26755">
        <ele>278</ele>
        <time>2026-03-30T12:17:59.000Z</time>
      </trkpt>
      <trkpt lat="45.82564" lon="1.26757">
        <ele>277</ele>
        <time>2026-03-30T12:18:12.000Z</time>
      </trkpt>
      <trkpt lat="45.82551" lon="1.26754">
        <ele>277</ele>
        <time>2026-03-30T12:18:31.000Z</time>
      </trkpt>
      <trkpt lat="45.82537" lon="1.26749">
        <ele>276</ele>
        <time>2026-03-30T12:18:44.000Z</time>
      </trkpt>
      <trkpt lat="45.82523" lon="1.26759">
        <ele>274</ele>
        <time>2026-03-30T12:18:57.000Z</time>
      </trkpt>
      <trkpt lat="45.82508" lon="1.26761">
        <ele>273</ele>
        <time>2026-03-30T12:19:15.000Z</time>
      </trkpt>
      <trkpt lat="45.82494" lon="1.2676">
        <ele>273</ele>
        <time>2026-03-30T12:19:24.000Z</time>
      </trkpt>
      <trkpt lat="45.82481" lon="1.2676">
        <ele>272</ele>
        <time>2026-03-30T12:19:42.000Z</time>
      </trkpt>
      <trkpt lat="45.82468" lon="1.26753">
        <ele>271</ele>
        <time>2026-03-30T12:19:57.000Z</time>
      </trkpt>
      <trkpt lat="45.82458" lon="1.26741">
        <ele>271</ele>
        <time>2026-03-30T12:20:15.000Z</time>
      </trkpt>
      <trkpt lat="45.82444" lon="1.26747">
        <ele>270</ele>
        <time>2026-03-30T12:20:59.000Z</time>
      </trkpt>
      <trkpt lat="45.82432" lon="1.26742">
        <ele>270</ele>
        <time>2026-03-30T12:21:14.000Z</time>
      </trkpt>
      <trkpt lat="45.8242" lon="1.2674">
        <ele>270</ele>
        <time>2026-03-30T12:21:26.000Z</time>
      </trkpt>
      <trkpt lat="45.82413" lon="1.26755">
        <ele>270</ele>
        <time>2026-03-30T12:21:43.000Z</time>
      </trkpt>
      <trkpt lat="45.82403" lon="1.26769">
        <ele>270</ele>
        <time>2026-03-30T12:21:58.000Z</time>
      </trkpt>
      <trkpt lat="45.82391" lon="1.26779">
        <ele>270</ele>
        <time>2026-03-30T12:22:08.000Z</time>
      </trkpt>
      <trkpt lat="45.82378" lon="1.26787">
        <ele>270</ele>
        <time>2026-03-30T12:22:21.000Z</time>
      </trkpt>
      <trkpt lat="45.82366" lon="1.26793">
        <ele>270</ele>
        <time>2026-03-30T12:22:34.000Z</time>
      </trkpt>
      <trkpt lat="45.82359" lon="1.26778">
        <ele>272</ele>
        <time>2026-03-30T12:22:41.000Z</time>
      </trkpt>
      <trkpt lat="45.82347" lon="1.2677">
        <ele>274</ele>
        <time>2026-03-30T12:22:50.000Z</time>
      </trkpt>
      <trkpt lat="45.82336" lon="1.26758">
        <ele>277</ele>
        <time>2026-03-30T12:23:02.000Z</time>
      </trkpt>
      <trkpt lat="45.82325" lon="1.26741">
        <ele>283</ele>
        <time>2026-03-30T12:23:14.000Z</time>
      </trkpt>
      <trkpt lat="45.82317" lon="1.26729">
        <ele>285</ele>
        <time>2026-03-30T12:23:24.000Z</time>
      </trkpt>
      <trkpt lat="45.82307" lon="1.26743">
        <ele>289</ele>
        <time>2026-03-30T12:23:33.000Z</time>
      </trkpt>
      <trkpt lat="45.82296" lon="1.26735">
        <ele>292</ele>
        <time>2026-03-30T12:23:50.000Z</time>
      </trkpt>
      <trkpt lat="45.82284" lon="1.26725">
        <ele>292</ele>
        <time>2026-03-30T12:24:01.000Z</time>
      </trkpt>
      <trkpt lat="45.82272" lon="1.26717">
        <ele>293</ele>
        <time>2026-03-30T12:24:12.000Z</time>
      </trkpt>
      <trkpt lat="45.82262" lon="1.26703">
        <ele>293</ele>
        <time>2026-03-30T12:24:31.000Z</time>
      </trkpt>
      <trkpt lat="45.8225" lon="1.2669">
        <ele>290</ele>
        <time>2026-03-30T12:24:46.000Z</time>
      </trkpt>
      <trkpt lat="45.82237" lon="1.26679">
        <ele>290</ele>
        <time>2026-03-30T12:24:59.000Z</time>
      </trkpt>
      <trkpt lat="45.8222" lon="1.26677">
        <ele>287</ele>
        <time>2026-03-30T12:25:16.000Z</time>
      </trkpt>
      <trkpt lat="45.82211" lon="1.2666">
        <ele>283</ele>
        <time>2026-03-30T12:25:31.000Z</time>
      </trkpt>
      <trkpt lat="45.82202" lon="1.26644">
        <ele>282</ele>
        <time>2026-03-30T12:25:44.000Z</time>
      </trkpt>
      <trkpt lat="45.82192" lon="1.26632">
        <ele>278</ele>
        <time>2026-03-30T12:25:54.000Z</time>
      </trkpt>
      <trkpt lat="45.82181" lon="1.2662">
        <ele>276</ele>
        <time>2026-03-30T12:26:09.000Z</time>
      </trkpt>
      <trkpt lat="45.8217" lon="1.26608">
        <ele>275</ele>
        <time>2026-03-30T12:26:24.000Z</time>
      </trkpt>
      <trkpt lat="45.82161" lon="1.26594">
        <ele>275</ele>
        <time>2026-03-30T12:26:42.000Z</time>
      </trkpt>
      <trkpt lat="45.82155" lon="1.26575">
        <ele>274</ele>
        <time>2026-03-30T12:26:50.000Z</time>
      </trkpt>
      <trkpt lat="45.82146" lon="1.26557">
        <ele>274</ele>
        <time>2026-03-30T12:27:14.000Z</time>
      </trkpt>
      <trkpt lat="45.82134" lon="1.26536">
        <ele>273</ele>
        <time>2026-03-30T12:27:39.000Z</time>
      </trkpt>
      <trkpt lat="45.82133" lon="1.26517">
        <ele>273</ele>
        <time>2026-03-30T12:27:49.000Z</time>
      </trkpt>
      <trkpt lat="45.82122" lon="1.26506">
        <ele>272</ele>
        <time>2026-03-30T12:27:56.000Z</time>
      </trkpt>
      <trkpt lat="45.82114" lon="1.26491">
        <ele>272</ele>
        <time>2026-03-30T12:28:10.000Z</time>
      </trkpt>
      <trkpt lat="45.82105" lon="1.26476">
        <ele>272</ele>
        <time>2026-03-30T12:28:41.000Z</time>
      </trkpt>
      <trkpt lat="45.82099" lon="1.26458">
        <ele>272</ele>
        <time>2026-03-30T12:28:58.000Z</time>
      </trkpt>
      <trkpt lat="45.82096" lon="1.26437">
        <ele>272</ele>
        <time>2026-03-30T12:29:17.000Z</time>
      </trkpt>
      <trkpt lat="45.82091" lon="1.26418">
        <ele>272</ele>
        <time>2026-03-30T12:29:29.000Z</time>
      </trkpt>
      <trkpt lat="45.82089" lon="1.26399">
        <ele>271</ele>
        <time>2026-03-30T12:29:50.000Z</time>
      </trkpt>
      <trkpt lat="45.82084" lon="1.26382">
        <ele>271</ele>
        <time>2026-03-30T12:30:09.000Z</time>
      </trkpt>
      <trkpt lat="45.82068" lon="1.26366">
        <ele>271</ele>
        <time>2026-03-30T12:30:21.000Z</time>
      </trkpt>
      <trkpt lat="45.82062" lon="1.26348">
        <ele>271</ele>
        <time>2026-03-30T12:30:49.000Z</time>
      </trkpt>
      <trkpt lat="45.82056" lon="1.2633">
        <ele>271</ele>
        <time>2026-03-30T12:31:00.000Z</time>
      </trkpt>
      <trkpt lat="45.82049" lon="1.26315">
        <ele>272</ele>
        <time>2026-03-30T12:31:12.000Z</time>
      </trkpt>
      <trkpt lat="45.82041" lon="1.26299">
        <ele>272</ele>
        <time>2026-03-30T12:31:23.000Z</time>
      </trkpt>
      <trkpt lat="45.82036" lon="1.2628">
        <ele>273</ele>
        <time>2026-03-30T12:31:36.000Z</time>
      </trkpt>
      <trkpt lat="45.82031" lon="1.26262">
        <ele>273</ele>
        <time>2026-03-30T12:31:50.000Z</time>
      </trkpt>
      <trkpt lat="45.82023" lon="1.26246">
        <ele>271</ele>
        <time>2026-03-30T12:32:06.000Z</time>
      </trkpt>
      <trkpt lat="45.82015" lon="1.2623">
        <ele>271</ele>
        <time>2026-03-30T12:32:28.000Z</time>
      </trkpt>
      <trkpt lat="45.82009" lon="1.2621">
        <ele>271</ele>
        <time>2026-03-30T12:32:58.000Z</time>
      </trkpt>
      <trkpt lat="45.82004" lon="1.2619">
        <ele>271</ele>
        <time>2026-03-30T12:33:13.000Z</time>
      </trkpt>
      <trkpt lat="45.82005" lon="1.2617">
        <ele>270</ele>
        <time>2026-03-30T12:33:29.000Z</time>
      </trkpt>
      <trkpt lat="45.82006" lon="1.2615">
        <ele>270</ele>
        <time>2026-03-30T12:33:44.000Z</time>
      </trkpt>
      <trkpt lat="45.82005" lon="1.26131">
        <ele>270</ele>
        <time>2026-03-30T12:33:54.000Z</time>
      </trkpt>
      <trkpt lat="45.82002" lon="1.26111">
        <ele>272</ele>
        <time>2026-03-30T12:34:13.000Z</time>
      </trkpt>
      <trkpt lat="45.81994" lon="1.26096">
        <ele>273</ele>
        <time>2026-03-30T12:34:23.000Z</time>
      </trkpt>
      <trkpt lat="45.81987" lon="1.26078">
        <ele>275</ele>
        <time>2026-03-30T12:34:38.000Z</time>
      </trkpt>
      <trkpt lat="45.8198" lon="1.26059">
        <ele>276</ele>
        <time>2026-03-30T12:34:52.000Z</time>
      </trkpt>
      <trkpt lat="45.81976" lon="1.26038">
        <ele>277</ele>
        <time>2026-03-30T12:35:10.000Z</time>
      </trkpt>
      <trkpt lat="45.81971" lon="1.2602">
        <ele>277</ele>
        <time>2026-03-30T12:35:17.000Z</time>
      </trkpt>
      <trkpt lat="45.81966" lon="1.26003">
        <ele>278</ele>
        <time>2026-03-30T12:35:27.000Z</time>
      </trkpt>
      <trkpt lat="45.81964" lon="1.25983">
        <ele>277</ele>
        <time>2026-03-30T12:35:46.000Z</time>
      </trkpt>
      <trkpt lat="45.81955" lon="1.25968">
        <ele>279</ele>
        <time>2026-03-30T12:36:11.000Z</time>
      </trkpt>
      <trkpt lat="45.81948" lon="1.25952">
        <ele>280</ele>
        <time>2026-03-30T12:36:24.000Z</time>
      </trkpt>
      <trkpt lat="45.81944" lon="1.25933">
        <ele>280</ele>
        <time>2026-03-30T12:36:37.000Z</time>
      </trkpt>
      <trkpt lat="45.81938" lon="1.25914">
        <ele>282</ele>
        <time>2026-03-30T12:36:52.000Z</time>
      </trkpt>
      <trkpt lat="45.81935" lon="1.25895">
        <ele>282</ele>
        <time>2026-03-30T12:37:05.000Z</time>
      </trkpt>
      <trkpt lat="45.81934" lon="1.25876">
        <ele>285</ele>
        <time>2026-03-30T12:37:19.000Z</time>
      </trkpt>
      <trkpt lat="45.81929" lon="1.25857">
        <ele>287</ele>
        <time>2026-03-30T12:37:33.000Z</time>
      </trkpt>
      <trkpt lat="45.81923" lon="1.2584">
        <ele>291</ele>
        <time>2026-03-30T12:37:47.000Z</time>
      </trkpt>
      <trkpt lat="45.81919" lon="1.25822">
        <ele>292</ele>
        <time>2026-03-30T12:37:58.000Z</time>
      </trkpt>
      <trkpt lat="45.81915" lon="1.25804">
        <ele>293</ele>
        <time>2026-03-30T12:38:10.000Z</time>
      </trkpt>
      <trkpt lat="45.81907" lon="1.25787">
        <ele>294</ele>
        <time>2026-03-30T12:38:23.000Z</time>
      </trkpt>
      <trkpt lat="45.81901" lon="1.25768">
        <ele>293</ele>
        <time>2026-03-30T12:38:38.000Z</time>
      </trkpt>
      <trkpt lat="45.81896" lon="1.2575">
        <ele>291</ele>
        <time>2026-03-30T12:38:51.000Z</time>
      </trkpt>
      <trkpt lat="45.81888" lon="1.25732">
        <ele>290</ele>
        <time>2026-03-30T12:39:12.000Z</time>
      </trkpt>
      <trkpt lat="45.81878" lon="1.25716">
        <ele>288</ele>
        <time>2026-03-30T12:39:26.000Z</time>
      </trkpt>
      <trkpt lat="45.81869" lon="1.25701">
        <ele>286</ele>
        <time>2026-03-30T12:39:40.000Z</time>
      </trkpt>
      <trkpt lat="45.8186" lon="1.25688">
        <ele>285</ele>
        <time>2026-03-30T12:39:48.000Z</time>
      </trkpt>
      <trkpt lat="45.8185" lon="1.25673">
        <ele>284</ele>
        <time>2026-03-30T12:39:59.000Z</time>
      </trkpt>
      <trkpt lat="45.81842" lon="1.25657">
        <ele>283</ele>
        <time>2026-03-30T12:40:10.000Z</time>
      </trkpt>
      <trkpt lat="45.81837" lon="1.25639">
        <ele>283</ele>
        <time>2026-03-30T12:40:21.000Z</time>
      </trkpt>
      <trkpt lat="45.81829" lon="1.25622">
        <ele>283</ele>
        <time>2026-03-30T12:40:32.000Z</time>
      </trkpt>
      <trkpt lat="45.81822" lon="1.25605">
        <ele>283</ele>
        <time>2026-03-30T12:40:51.000Z</time>
      </trkpt>
      <trkpt lat="45.81817" lon="1.25585">
        <ele>283</ele>
        <time>2026-03-30T12:41:06.000Z</time>
      </trkpt>
      <trkpt lat="45.8181" lon="1.25567">
        <ele>283</ele>
        <time>2026-03-30T12:41:19.000Z</time>
      </trkpt>
      <trkpt lat="45.81804" lon="1.25549">
        <ele>283</ele>
        <time>2026-03-30T12:41:31.000Z</time>
      </trkpt>
      <trkpt lat="45.81797" lon="1.25532">
        <ele>283</ele>
        <time>2026-03-30T12:41:48.000Z</time>
      </trkpt>
      <trkpt lat="45.81791" lon="1.25515">
        <ele>283</ele>
        <time>2026-03-30T12:42:07.000Z</time>
      </trkpt>
      <trkpt lat="45.81783" lon="1.25498">
        <ele>283</ele>
        <time>2026-03-30T12:42:21.000Z</time>
      </trkpt>
      <trkpt lat="45.81775" lon="1.25482">
        <ele>283</ele>
        <time>2026-03-30T12:42:32.000Z</time>
      </trkpt>
      <trkpt lat="45.81767" lon="1.25466">
        <ele>283</ele>
        <time>2026-03-30T12:42:43.000Z</time>
      </trkpt>
      <trkpt lat="45.8176" lon="1.25449">
        <ele>283</ele>
        <time>2026-03-30T12:42:58.000Z</time>
      </trkpt>
      <trkpt lat="45.81757" lon="1.25429">
        <ele>283</ele>
        <time>2026-03-30T12:43:12.000Z</time>
      </trkpt>
      <trkpt lat="45.81752" lon="1.2541">
        <ele>283</ele>
        <time>2026-03-30T12:43:25.000Z</time>
      </trkpt>
      <trkpt lat="45.81746" lon="1.25391">
        <ele>283</ele>
        <time>2026-03-30T12:43:39.000Z</time>
      </trkpt>
      <trkpt lat="45.81745" lon="1.25372">
        <ele>283</ele>
        <time>2026-03-30T12:43:59.000Z</time>
      </trkpt>
      <trkpt lat="45.81741" lon="1.25352">
        <ele>283</ele>
        <time>2026-03-30T12:44:16.000Z</time>
      </trkpt>
      <trkpt lat="45.81739" lon="1.25331">
        <ele>283</ele>
        <time>2026-03-30T12:44:29.000Z</time>
      </trkpt>
      <trkpt lat="45.81736" lon="1.25313">
        <ele>283</ele>
        <time>2026-03-30T12:44:39.000Z</time>
      </trkpt>
      <trkpt lat="45.81724" lon="1.25305">
        <ele>284</ele>
        <time>2026-03-30T12:45:14.000Z</time>
      </trkpt>
      <trkpt lat="45.8171" lon="1.25305">
        <ele>284</ele>
        <time>2026-03-30T12:45:25.000Z</time>
      </trkpt>
      <trkpt lat="45.81698" lon="1.25297">
        <ele>288</ele>
        <time>2026-03-30T12:45:42.000Z</time>
      </trkpt>
      <trkpt lat="45.8169" lon="1.25285">
        <ele>292</ele>
        <time>2026-03-30T12:45:58.000Z</time>
      </trkpt>
      <trkpt lat="45.81682" lon="1.25296">
        <ele>295</ele>
        <time>2026-03-30T12:46:23.000Z</time>
      </trkpt>
      <trkpt lat="45.81674" lon="1.25311">
        <ele>299</ele>
        <time>2026-03-30T12:46:50.000Z</time>
      </trkpt>
      <trkpt lat="45.81662" lon="1.25318">
        <ele>301</ele>
        <time>2026-03-30T12:47:04.000Z</time>
      </trkpt>
      <trkpt lat="45.81648" lon="1.25319">
        <ele>303</ele>
        <time>2026-03-30T12:47:21.000Z</time>
      </trkpt>
      <trkpt lat="45.81634" lon="1.25322">
        <ele>303</ele>
        <time>2026-03-30T12:47:33.000Z</time>
      </trkpt>
      <trkpt lat="45.81621" lon="1.25327">
        <ele>300</ele>
        <time>2026-03-30T12:47:47.000Z</time>
      </trkpt>
      <trkpt lat="45.81607" lon="1.25332">
        <ele>297</ele>
        <time>2026-03-30T12:48:00.000Z</time>
      </trkpt>
      <trkpt lat="45.81592" lon="1.25335">
        <ele>292</ele>
        <time>2026-03-30T12:48:16.000Z</time>
      </trkpt>
      <trkpt lat="45.81579" lon="1.25338">
        <ele>289</ele>
        <time>2026-03-30T12:48:32.000Z</time>
      </trkpt>
      <trkpt lat="45.81566" lon="1.25341">
        <ele>287</ele>
        <time>2026-03-30T12:48:44.000Z</time>
      </trkpt>
      <trkpt lat="45.81554" lon="1.25348">
        <ele>286</ele>
        <time>2026-03-30T12:48:58.000Z</time>
      </trkpt>
      <trkpt lat="45.81542" lon="1.25358">
        <ele>285</ele>
        <time>2026-03-30T12:49:14.000Z</time>
      </trkpt>
      <trkpt lat="45.81531" lon="1.25373">
        <ele>284</ele>
        <time>2026-03-30T12:49:33.000Z</time>
      </trkpt>
      <trkpt lat="45.81521" lon="1.2539">
        <ele>284</ele>
        <time>2026-03-30T12:49:47.000Z</time>
      </trkpt>
      <trkpt lat="45.81513" lon="1.25406">
        <ele>283</ele>
        <time>2026-03-30T12:50:01.000Z</time>
      </trkpt>
      <trkpt lat="45.81508" lon="1.25425">
        <ele>283</ele>
        <time>2026-03-30T12:50:15.000Z</time>
      </trkpt>
      <trkpt lat="45.81508" lon="1.25444">
        <ele>283</ele>
        <time>2026-03-30T12:50:26.000Z</time>
      </trkpt>
      <trkpt lat="45.81506" lon="1.25462">
        <ele>283</ele>
        <time>2026-03-30T12:50:39.000Z</time>
      </trkpt>
      <trkpt lat="45.81499" lon="1.25479">
        <ele>283</ele>
        <time>2026-03-30T12:50:52.000Z</time>
      </trkpt>
      <trkpt lat="45.81499" lon="1.25497">
        <ele>283</ele>
        <time>2026-03-30T12:51:09.000Z</time>
      </trkpt>
      <trkpt lat="45.81508" lon="1.2551">
        <ele>283</ele>
        <time>2026-03-30T12:51:26.000Z</time>
      </trkpt>
      <trkpt lat="45.81521" lon="1.25508">
        <ele>283</ele>
        <time>2026-03-30T12:51:41.000Z</time>
      </trkpt>
      <trkpt lat="45.81534" lon="1.255">
        <ele>283</ele>
        <time>2026-03-30T12:51:57.000Z</time>
      </trkpt>
      <trkpt lat="45.81548" lon="1.25492">
        <ele>283</ele>
        <time>2026-03-30T12:52:22.000Z</time>
      </trkpt>
      <trkpt lat="45.81562" lon="1.25493">
        <ele>283</ele>
        <time>2026-03-30T12:52:35.000Z</time>
      </trkpt>
      <trkpt lat="45.81577" lon="1.25492">
        <ele>283</ele>
        <time>2026-03-30T12:52:48.000Z</time>
      </trkpt>
      <trkpt lat="45.81591" lon="1.2549">
        <ele>283</ele>
        <time>2026-03-30T12:53:04.000Z</time>
      </trkpt>
      <trkpt lat="45.81606" lon="1.25495">
        <ele>283</ele>
        <time>2026-03-30T12:53:24.000Z</time>
      </trkpt>
      <trkpt lat="45.81621" lon="1.25496">
        <ele>283</ele>
        <time>2026-03-30T12:53:34.000Z</time>
      </trkpt>
      <trkpt lat="45.81635" lon="1.25501">
        <ele>283</ele>
        <time>2026-03-30T12:53:45.000Z</time>
      </trkpt>
      <trkpt lat="45.81648" lon="1.25505">
        <ele>283</ele>
        <time>2026-03-30T12:53:58.000Z</time>
      </trkpt>
      <trkpt lat="45.81662" lon="1.25514">
        <ele>283</ele>
        <time>2026-03-30T12:54:14.000Z</time>
      </trkpt>
      <trkpt lat="45.81676" lon="1.25523">
        <ele>281</ele>
        <time>2026-03-30T12:54:27.000Z</time>
      </trkpt>
      <trkpt lat="45.81688" lon="1.25534">
        <ele>281</ele>
        <time>2026-03-30T12:54:43.000Z</time>
      </trkpt>
      <trkpt lat="45.81696" lon="1.25548">
        <ele>280</ele>
        <time>2026-03-30T12:54:58.000Z</time>
      </trkpt>
      <trkpt lat="45.817" lon="1.25567">
        <ele>280</ele>
        <time>2026-03-30T12:55:12.000Z</time>
      </trkpt>
      <trkpt lat="45.81707" lon="1.25586">
        <ele>280</ele>
        <time>2026-03-30T12:55:27.000Z</time>
      </trkpt>
      <trkpt lat="45.81716" lon="1.25602">
        <ele>280</ele>
        <time>2026-03-30T12:55:40.000Z</time>
      </trkpt>
      <trkpt lat="45.81725" lon="1.25618">
        <ele>280</ele>
        <time>2026-03-30T12:55:53.000Z</time>
      </trkpt>
      <trkpt lat="45.81732" lon="1.25637">
        <ele>282</ele>
        <time>2026-03-30T12:56:07.000Z</time>
      </trkpt>
      <trkpt lat="45.81738" lon="1.25654">
        <ele>284</ele>
        <time>2026-03-30T12:56:22.000Z</time>
      </trkpt>
      <trkpt lat="45.81749" lon="1.25666">
        <ele>286</ele>
        <time>2026-03-30T12:56:36.000Z</time>
      </trkpt>
      <trkpt lat="45.81755" lon="1.25684">
        <ele>289</ele>
        <time>2026-03-30T12:56:52.000Z</time>
      </trkpt>
      <trkpt lat="45.81761" lon="1.25702">
        <ele>290</ele>
        <time>2026-03-30T12:57:12.000Z</time>
      </trkpt>
      <trkpt lat="45.81771" lon="1.25719">
        <ele>291</ele>
        <time>2026-03-30T12:57:25.000Z</time>
      </trkpt>
      <trkpt lat="45.8178" lon="1.25733">
        <ele>289</ele>
        <time>2026-03-30T12:57:39.000Z</time>
      </trkpt>
      <trkpt lat="45.81783" lon="1.25751">
        <ele>289</ele>
        <time>2026-03-30T12:57:50.000Z</time>
      </trkpt>
      <trkpt lat="45.81785" lon="1.25771">
        <ele>286</ele>
        <time>2026-03-30T12:58:01.000Z</time>
      </trkpt>
      <trkpt lat="45.8179" lon="1.25788">
        <ele>285</ele>
        <time>2026-03-30T12:58:13.000Z</time>
      </trkpt>
      <trkpt lat="45.81804" lon="1.25798">
        <ele>288</ele>
        <time>2026-03-30T12:58:34.000Z</time>
      </trkpt>
      <trkpt lat="45.81814" lon="1.25812">
        <ele>288</ele>
        <time>2026-03-30T12:58:55.000Z</time>
      </trkpt>
      <trkpt lat="45.8182" lon="1.25829">
        <ele>288</ele>
        <time>2026-03-30T12:59:13.000Z</time>
      </trkpt>
      <trkpt lat="45.81825" lon="1.25847">
        <ele>285</ele>
        <time>2026-03-30T12:59:31.000Z</time>
      </trkpt>
      <trkpt lat="45.81831" lon="1.25864">
        <ele>282</ele>
        <time>2026-03-30T12:59:46.000Z</time>
      </trkpt>
      <trkpt lat="45.81839" lon="1.2588">
        <ele>279</ele>
        <time>2026-03-30T13:00:07.000Z</time>
      </trkpt>
      <trkpt lat="45.81846" lon="1.25898">
        <ele>281</ele>
        <time>2026-03-30T13:00:25.000Z</time>
      </trkpt>
      <trkpt lat="45.81852" lon="1.25918">
        <ele>283</ele>
        <time>2026-03-30T13:00:40.000Z</time>
      </trkpt>
      <trkpt lat="45.81856" lon="1.25937">
        <ele>287</ele>
        <time>2026-03-30T13:00:58.000Z</time>
      </trkpt>
      <trkpt lat="45.81859" lon="1.25957">
        <ele>289</ele>
        <time>2026-03-30T13:01:12.000Z</time>
      </trkpt>
      <trkpt lat="45.81861" lon="1.25978">
        <ele>291</ele>
        <time>2026-03-30T13:01:23.000Z</time>
      </trkpt>
      <trkpt lat="45.81864" lon="1.25998">
        <ele>292</ele>
        <time>2026-03-30T13:01:34.000Z</time>
      </trkpt>
      <trkpt lat="45.81871" lon="1.26016">
        <ele>293</ele>
        <time>2026-03-30T13:01:45.000Z</time>
      </trkpt>
      <trkpt lat="45.81876" lon="1.26038">
        <ele>294</ele>
        <time>2026-03-30T13:01:56.000Z</time>
      </trkpt>
      <trkpt lat="45.81882" lon="1.26058">
        <ele>291</ele>
        <time>2026-03-30T13:02:09.000Z</time>
      </trkpt>
      <trkpt lat="45.81892" lon="1.26074">
        <ele>288</ele>
        <time>2026-03-30T13:02:22.000Z</time>
      </trkpt>
      <trkpt lat="45.81902" lon="1.26093">
        <ele>284</ele>
        <time>2026-03-30T13:02:49.000Z</time>
      </trkpt>
      <trkpt lat="45.81907" lon="1.26114">
        <ele>280</ele>
        <time>2026-03-30T13:03:07.000Z</time>
      </trkpt>
      <trkpt lat="45.81913" lon="1.26132">
        <ele>278</ele>
        <time>2026-03-30T13:03:25.000Z</time>
      </trkpt>
      <trkpt lat="45.81919" lon="1.26149">
        <ele>276</ele>
        <time>2026-03-30T13:04:33.000Z</time>
      </trkpt>
      <trkpt lat="45.81924" lon="1.26168">
        <ele>274</ele>
        <time>2026-03-30T13:04:53.000Z</time>
      </trkpt>
      <trkpt lat="45.81931" lon="1.26187">
        <ele>273</ele>
        <time>2026-03-30T13:05:07.000Z</time>
      </trkpt>
      <trkpt lat="45.8193" lon="1.26206">
        <ele>272</ele>
        <time>2026-03-30T13:05:22.000Z</time>
      </trkpt>
      <trkpt lat="45.8193" lon="1.26225">
        <ele>272</ele>
        <time>2026-03-30T13:05:35.000Z</time>
      </trkpt>
      <trkpt lat="45.81933" lon="1.26246">
        <ele>271</ele>
        <time>2026-03-30T13:06:17.000Z</time>
      </trkpt>
      <trkpt lat="45.8194" lon="1.26265">
        <ele>271</ele>
        <time>2026-03-30T13:06:34.000Z</time>
      </trkpt>
      <trkpt lat="45.81949" lon="1.26281">
        <ele>271</ele>
        <time>2026-03-30T13:06:49.000Z</time>
      </trkpt>
      <trkpt lat="45.81955" lon="1.263">
        <ele>271</ele>
        <time>2026-03-30T13:07:19.000Z</time>
      </trkpt>
      <trkpt lat="45.81957" lon="1.26321">
        <ele>271</ele>
        <time>2026-03-30T13:08:35.000Z</time>
      </trkpt>
      <trkpt lat="45.81959" lon="1.26341">
        <ele>271</ele>
        <time>2026-03-30T13:09:12.000Z</time>
      </trkpt>
      <trkpt lat="45.81959" lon="1.26361">
        <ele>271</ele>
        <time>2026-03-30T13:09:44.000Z</time>
      </trkpt>
      <trkpt lat="45.81964" lon="1.26379">
        <ele>272</ele>
        <time>2026-03-30T13:10:17.000Z</time>
      </trkpt>
      <trkpt lat="45.8197" lon="1.26397">
        <ele>273</ele>
        <time>2026-03-30T13:10:32.000Z</time>
      </trkpt>
      <trkpt lat="45.81976" lon="1.26415">
        <ele>274</ele>
        <time>2026-03-30T13:11:06.000Z</time>
      </trkpt>
      <trkpt lat="45.81976" lon="1.26434">
        <ele>274</ele>
        <time>2026-03-30T13:11:25.000Z</time>
      </trkpt>
      <trkpt lat="45.81971" lon="1.26452">
        <ele>274</ele>
        <time>2026-03-30T13:11:43.000Z</time>
      </trkpt>
      <trkpt lat="45.81976" lon="1.26469">
        <ele>274</ele>
        <time>2026-03-30T13:11:58.000Z</time>
      </trkpt>
      <trkpt lat="45.81984" lon="1.26485">
        <ele>273</ele>
        <time>2026-03-30T13:12:05.000Z</time>
      </trkpt>
      <trkpt lat="45.8199" lon="1.26502">
        <ele>273</ele>
        <time>2026-03-30T13:12:15.000Z</time>
      </trkpt>
      <trkpt lat="45.81994" lon="1.26521">
        <ele>272</ele>
        <time>2026-03-30T13:12:31.000Z</time>
      </trkpt>
      <trkpt lat="45.81999" lon="1.2654">
        <ele>272</ele>
        <time>2026-03-30T13:12:45.000Z</time>
      </trkpt>
      <trkpt lat="45.82006" lon="1.26559">
        <ele>272</ele>
        <time>2026-03-30T13:12:57.000Z</time>
      </trkpt>
      <trkpt lat="45.82008" lon="1.2658">
        <ele>272</ele>
        <time>2026-03-30T13:13:11.000Z</time>
      </trkpt>
      <trkpt lat="45.82009" lon="1.26599">
        <ele>272</ele>
        <time>2026-03-30T13:13:45.000Z</time>
      </trkpt>
      <trkpt lat="45.82015" lon="1.26615">
        <ele>272</ele>
        <time>2026-03-30T13:14:08.000Z</time>
      </trkpt>
      <trkpt lat="45.82023" lon="1.26631">
        <ele>272</ele>
        <time>2026-03-30T13:14:37.000Z</time>
      </trkpt>
      <trkpt lat="45.82033" lon="1.26643">
        <ele>271</ele>
        <time>2026-03-30T13:14:58.000Z</time>
      </trkpt>
      <trkpt lat="45.82041" lon="1.26659">
        <ele>271</ele>
        <time>2026-03-30T13:15:08.000Z</time>
      </trkpt>
      <trkpt lat="45.82046" lon="1.26676">
        <ele>273</ele>
        <time>2026-03-30T13:15:18.000Z</time>
      </trkpt>
      <trkpt lat="45.82049" lon="1.26695">
        <ele>276</ele>
        <time>2026-03-30T13:15:33.000Z</time>
      </trkpt>
      <trkpt lat="45.82059" lon="1.26708">
        <ele>278</ele>
        <time>2026-03-30T13:15:48.000Z</time>
      </trkpt>
      <trkpt lat="45.82069" lon="1.26721">
        <ele>279</ele>
        <time>2026-03-30T13:16:01.000Z</time>
      </trkpt>
      <trkpt lat="45.82074" lon="1.26739">
        <ele>277</ele>
        <time>2026-03-30T13:16:17.000Z</time>
      </trkpt>
      <trkpt lat="45.82079" lon="1.26758">
        <ele>275</ele>
        <time>2026-03-30T13:16:31.000Z</time>
      </trkpt>
      <trkpt lat="45.82081" lon="1.26777">
        <ele>274</ele>
        <time>2026-03-30T13:17:24.000Z</time>
      </trkpt>
      <trkpt lat="45.8209" lon="1.26791">
        <ele>274</ele>
        <time>2026-03-30T13:17:43.000Z</time>
      </trkpt>
      <trkpt lat="45.82103" lon="1.26802">
        <ele>275</ele>
        <time>2026-03-30T13:18:07.000Z</time>
      </trkpt>
      <trkpt lat="45.82116" lon="1.26808">
        <ele>277</ele>
        <time>2026-03-30T13:18:27.000Z</time>
      </trkpt>
      <trkpt lat="45.82129" lon="1.26812">
        <ele>277</ele>
        <time>2026-03-30T13:18:39.000Z</time>
      </trkpt>
      <trkpt lat="45.82144" lon="1.26817">
        <ele>276</ele>
        <time>2026-03-30T13:18:52.000Z</time>
      </trkpt>
      <trkpt lat="45.82157" lon="1.26823">
        <ele>275</ele>
        <time>2026-03-30T13:19:08.000Z</time>
      </trkpt>
      <trkpt lat="45.8217" lon="1.2683">
        <ele>273</ele>
        <time>2026-03-30T13:19:24.000Z</time>
      </trkpt>
      <trkpt lat="45.82183" lon="1.26839">
        <ele>273</ele>
        <time>2026-03-30T13:19:42.000Z</time>
      </trkpt>
      <trkpt lat="45.82194" lon="1.26851">
        <ele>272</ele>
        <time>2026-03-30T13:19:57.000Z</time>
      </trkpt>
      <trkpt lat="45.82206" lon="1.2686">
        <ele>271</ele>
        <time>2026-03-30T13:20:11.000Z</time>
      </trkpt>
      <trkpt lat="45.82219" lon="1.26863">
        <ele>271</ele>
        <time>2026-03-30T13:20:26.000Z</time>
      </trkpt>
      <trkpt lat="45.82233" lon="1.26866">
        <ele>271</ele>
        <time>2026-03-30T13:20:36.000Z</time>
      </trkpt>
      <trkpt lat="45.82247" lon="1.26869">
        <ele>271</ele>
        <time>2026-03-30T13:20:50.000Z</time>
      </trkpt>
      <trkpt lat="45.82259" lon="1.26875">
        <ele>271</ele>
        <time>2026-03-30T13:21:00.000Z</time>
      </trkpt>
      <trkpt lat="45.8227" lon="1.26888">
        <ele>271</ele>
        <time>2026-03-30T13:21:20.000Z</time>
      </trkpt>
      <trkpt lat="45.8228" lon="1.269">
        <ele>271</ele>
        <time>2026-03-30T13:21:43.000Z</time>
      </trkpt>
      <trkpt lat="45.82294" lon="1.26905">
        <ele>271</ele>
        <time>2026-03-30T13:22:00.000Z</time>
      </trkpt>
      <trkpt lat="45.82309" lon="1.26913">
        <ele>271</ele>
        <time>2026-03-30T13:22:26.000Z</time>
      </trkpt>
      <trkpt lat="45.82322" lon="1.26919">
        <ele>272</ele>
        <time>2026-03-30T13:23:11.000Z</time>
      </trkpt>
      <trkpt lat="45.82331" lon="1.26936">
        <ele>272</ele>
        <time>2026-03-30T13:23:55.000Z</time>
      </trkpt>
      <trkpt lat="45.82334" lon="1.26953">
        <ele>272</ele>
        <time>2026-03-30T13:27:50.000Z</time>
      </trkpt>
      <trkpt lat="45.82328" lon="1.26969">
        <ele>273</ele>
        <time>2026-03-30T13:31:52.000Z</time>
      </trkpt>
      <trkpt lat="45.82319" lon="1.26981">
        <ele>273</ele>
        <time>2026-03-30T13:32:08.000Z</time>
      </trkpt>
      <trkpt lat="45.82318" lon="1.26999">
        <ele>273</ele>
        <time>2026-03-30T13:32:31.000Z</time>
      </trkpt>
      <trkpt lat="45.82317" lon="1.27019">
        <ele>273</ele>
        <time>2026-03-30T13:32:47.000Z</time>
      </trkpt>
      <trkpt lat="45.82319" lon="1.27038">
        <ele>273</ele>
        <time>2026-03-30T13:33:03.000Z</time>
      </trkpt>
      <trkpt lat="45.82324" lon="1.27057">
        <ele>273</ele>
        <time>2026-03-30T13:33:20.000Z</time>
      </trkpt>
      <trkpt lat="45.82327" lon="1.27077">
        <ele>273</ele>
        <time>2026-03-30T13:33:35.000Z</time>
      </trkpt>
      <trkpt lat="45.82332" lon="1.27097">
        <ele>274</ele>
        <time>2026-03-30T13:33:53.000Z</time>
      </trkpt>
      <trkpt lat="45.82337" lon="1.27116">
        <ele>274</ele>
        <time>2026-03-30T13:34:09.000Z</time>
      </trkpt>
      <trkpt lat="45.82345" lon="1.27131">
        <ele>274</ele>
        <time>2026-03-30T13:34:22.000Z</time>
      </trkpt>
      <trkpt lat="45.82348" lon="1.27149">
        <ele>274</ele>
        <time>2026-03-30T13:34:34.000Z</time>
      </trkpt>
      <trkpt lat="45.82346" lon="1.27167">
        <ele>274</ele>
        <time>2026-03-30T13:34:50.000Z</time>
      </trkpt>
      <trkpt lat="45.82351" lon="1.27184">
        <ele>274</ele>
        <time>2026-03-30T13:35:11.000Z</time>
      </trkpt>
      <trkpt lat="45.82356" lon="1.27202">
        <ele>274</ele>
        <time>2026-03-30T13:35:25.000Z</time>
      </trkpt>
      <trkpt lat="45.82366" lon="1.27216">
        <ele>274</ele>
        <time>2026-03-30T13:35:40.000Z</time>
      </trkpt>
      <trkpt lat="45.82373" lon="1.27234">
        <ele>275</ele>
        <time>2026-03-30T13:35:58.000Z</time>
      </trkpt>
      <trkpt lat="45.82374" lon="1.27255">
        <ele>277</ele>
        <time>2026-03-30T13:36:17.000Z</time>
      </trkpt>
      <trkpt lat="45.82378" lon="1.27274">
        <ele>279</ele>
        <time>2026-03-30T13:36:30.000Z</time>
      </trkpt>
      <trkpt lat="45.82385" lon="1.27289">
        <ele>280</ele>
        <time>2026-03-30T13:36:48.000Z</time>
      </trkpt>
      <trkpt lat="45.82384" lon="1.27308">
        <ele>279</ele>
        <time>2026-03-30T13:37:34.000Z</time>
      </trkpt>
      <trkpt lat="45.82378" lon="1.27327">
        <ele>278</ele>
        <time>2026-03-30T13:37:54.000Z</time>
      </trkpt>
      <trkpt lat="45.82365" lon="1.27336">
        <ele>278</ele>
        <time>2026-03-30T13:38:03.000Z</time>
      </trkpt>
      <trkpt lat="45.82353" lon="1.27348">
        <ele>279</ele>
        <time>2026-03-30T13:38:14.000Z</time>
      </trkpt>
      <trkpt lat="45.82345" lon="1.27365">
        <ele>281</ele>
        <time>2026-03-30T13:38:30.000Z</time>
      </trkpt>
      <trkpt lat="45.82335" lon="1.27381">
        <ele>282</ele>
        <time>2026-03-30T13:38:45.000Z</time>
      </trkpt>
      <trkpt lat="45.82323" lon="1.27388">
        <ele>283</ele>
        <time>2026-03-30T13:38:59.000Z</time>
      </trkpt>
      <trkpt lat="45.82312" lon="1.27399">
        <ele>284</ele>
        <time>2026-03-30T13:39:20.000Z</time>
      </trkpt>
      <trkpt lat="45.82303" lon="1.27413">
        <ele>284</ele>
        <time>2026-03-30T13:39:34.000Z</time>
      </trkpt>
      <trkpt lat="45.82301" lon="1.27435">
        <ele>284</ele>
        <time>2026-03-30T13:39:45.000Z</time>
      </trkpt>
      <trkpt lat="45.82306" lon="1.27469">
        <ele>283</ele>
        <time>2026-03-30T13:40:12.000Z</time>
      </trkpt>
      <trkpt lat="45.82301" lon="1.27494">
        <ele>284</ele>
        <time>2026-03-30T13:40:15.000Z</time>
      </trkpt>
      <trkpt lat="45.823" lon="1.27513">
        <ele>284</ele>
        <time>2026-03-30T13:40:27.000Z</time>
      </trkpt>
      <trkpt lat="45.82289" lon="1.27521">
        <ele>286</ele>
        <time>2026-03-30T13:40:42.000Z</time>
      </trkpt>
      <trkpt lat="45.82278" lon="1.27531">
        <ele>288</ele>
        <time>2026-03-30T13:40:57.000Z</time>
      </trkpt>
      <trkpt lat="45.82271" lon="1.27547">
        <ele>290</ele>
        <time>2026-03-30T13:41:21.000Z</time>
      </trkpt>
      <trkpt lat="45.82273" lon="1.27567">
        <ele>292</ele>
        <time>2026-03-30T13:41:34.000Z</time>
      </trkpt>
      <trkpt lat="45.82272" lon="1.27586">
        <ele>293</ele>
        <time>2026-03-30T13:41:48.000Z</time>
      </trkpt>
      <trkpt lat="45.82274" lon="1.27607">
        <ele>294</ele>
        <time>2026-03-30T13:42:02.000Z</time>
      </trkpt>
      <trkpt lat="45.82275" lon="1.27627">
        <ele>293</ele>
        <time>2026-03-30T13:42:15.000Z</time>
      </trkpt>
      <trkpt lat="45.82272" lon="1.27647">
        <ele>291</ele>
        <time>2026-03-30T13:42:30.000Z</time>
      </trkpt>
      <trkpt lat="45.82275" lon="1.27667">
        <ele>291</ele>
        <time>2026-03-30T13:42:46.000Z</time>
      </trkpt>
      <trkpt lat="45.82278" lon="1.27686">
        <ele>290</ele>
        <time>2026-03-30T13:42:59.000Z</time>
      </trkpt>
      <trkpt lat="45.8228" lon="1.27706">
        <ele>291</ele>
        <time>2026-03-30T13:43:12.000Z</time>
      </trkpt>
      <trkpt lat="45.82283" lon="1.27725">
        <ele>291</ele>
        <time>2026-03-30T13:43:28.000Z</time>
      </trkpt>
      <trkpt lat="45.82289" lon="1.27743">
        <ele>289</ele>
        <time>2026-03-30T13:44:02.000Z</time>
      </trkpt>
      <trkpt lat="45.8229" lon="1.27767">
        <ele>287</ele>
        <time>2026-03-30T13:44:26.000Z</time>
      </trkpt>
      <trkpt lat="45.82293" lon="1.27787">
        <ele>285</ele>
        <time>2026-03-30T13:44:38.000Z</time>
      </trkpt>
      <trkpt lat="45.82292" lon="1.27805">
        <ele>285</ele>
        <time>2026-03-30T13:44:48.000Z</time>
      </trkpt>
      <trkpt lat="45.82292" lon="1.27824">
        <ele>284</ele>
        <time>2026-03-30T13:45:01.000Z</time>
      </trkpt>
      <trkpt lat="45.82292" lon="1.27845">
        <ele>283</ele>
        <time>2026-03-30T13:45:21.000Z</time>
      </trkpt>
      <trkpt lat="45.82285" lon="1.27865">
        <ele>283</ele>
        <time>2026-03-30T13:45:42.000Z</time>
      </trkpt>
      <trkpt lat="45.82278" lon="1.27879">
        <ele>282</ele>
        <time>2026-03-30T13:45:54.000Z</time>
      </trkpt>
      <trkpt lat="45.82266" lon="1.2787">
        <ele>282</ele>
        <time>2026-03-30T13:46:55.000Z</time>
      </trkpt>
      <trkpt lat="45.82255" lon="1.27874">
        <ele>281</ele>
        <time>2026-03-30T13:47:14.000Z</time>
      </trkpt>
      <trkpt lat="45.82256" lon="1.27892">
        <ele>281</ele>
        <time>2026-03-30T13:47:31.000Z</time>
      </trkpt>
      <trkpt lat="45.82254" lon="1.27912">
        <ele>281</ele>
        <time>2026-03-30T13:47:45.000Z</time>
      </trkpt>
      <trkpt lat="45.82249" lon="1.2793">
        <ele>281</ele>
        <time>2026-03-30T13:47:59.000Z</time>
      </trkpt>
      <trkpt lat="45.82243" lon="1.27948">
        <ele>281</ele>
        <time>2026-03-30T13:48:19.000Z</time>
      </trkpt>
      <trkpt lat="45.82234" lon="1.27965">
        <ele>281</ele>
        <time>2026-03-30T13:48:34.000Z</time>
      </trkpt>
      <trkpt lat="45.82222" lon="1.27976">
        <ele>281</ele>
        <time>2026-03-30T13:48:54.000Z</time>
      </trkpt>
      <trkpt lat="45.82215" lon="1.27991">
        <ele>281</ele>
        <time>2026-03-30T13:49:10.000Z</time>
      </trkpt>
      <trkpt lat="45.82215" lon="1.28012">
        <ele>281</ele>
        <time>2026-03-30T13:49:31.000Z</time>
      </trkpt>
      <trkpt lat="45.82215" lon="1.28032">
        <ele>281</ele>
        <time>2026-03-30T13:49:47.000Z</time>
      </trkpt>
      <trkpt lat="45.8221" lon="1.28049">
        <ele>281</ele>
        <time>2026-03-30T13:50:27.000Z</time>
      </trkpt>
      <trkpt lat="45.82197" lon="1.28057">
        <ele>281</ele>
        <time>2026-03-30T13:50:36.000Z</time>
      </trkpt>
      <trkpt lat="45.82186" lon="1.28069">
        <ele>281</ele>
        <time>2026-03-30T13:50:56.000Z</time>
      </trkpt>
      <trkpt lat="45.82178" lon="1.28086">
        <ele>281</ele>
        <time>2026-03-30T13:51:05.000Z</time>
      </trkpt>
      <trkpt lat="45.82171" lon="1.28105">
        <ele>281</ele>
        <time>2026-03-30T13:51:16.000Z</time>
      </trkpt>
      <trkpt lat="45.82164" lon="1.28122">
        <ele>281</ele>
        <time>2026-03-30T13:51:33.000Z</time>
      </trkpt>
      <trkpt lat="45.82156" lon="1.28136">
        <ele>281</ele>
        <time>2026-03-30T13:51:48.000Z</time>
      </trkpt>
      <trkpt lat="45.82152" lon="1.28154">
        <ele>281</ele>
        <time>2026-03-30T13:52:00.000Z</time>
      </trkpt>
      <trkpt lat="45.82143" lon="1.28171">
        <ele>281</ele>
        <time>2026-03-30T13:52:14.000Z</time>
      </trkpt>
      <trkpt lat="45.82137" lon="1.28189">
        <ele>283</ele>
        <time>2026-03-30T13:52:36.000Z</time>
      </trkpt>
      <trkpt lat="45.82135" lon="1.28211">
        <ele>284</ele>
        <time>2026-03-30T13:52:58.000Z</time>
      </trkpt>
      <trkpt lat="45.82129" lon="1.28231">
        <ele>286</ele>
        <time>2026-03-30T13:53:12.000Z</time>
      </trkpt>
      <trkpt lat="45.82121" lon="1.28249">
        <ele>288</ele>
        <time>2026-03-30T13:53:52.000Z</time>
      </trkpt>
      <trkpt lat="45.82113" lon="1.28264">
        <ele>289</ele>
        <time>2026-03-30T13:54:02.000Z</time>
      </trkpt>
      <trkpt lat="45.82107" lon="1.28284">
        <ele>290</ele>
        <time>2026-03-30T13:54:20.000Z</time>
      </trkpt>
      <trkpt lat="45.82112" lon="1.28316">
        <ele>291</ele>
        <time>2026-03-30T13:54:57.000Z</time>
      </trkpt>
      <trkpt lat="45.82114" lon="1.28338">
        <ele>291</ele>
        <time>2026-03-30T13:55:26.000Z</time>
      </trkpt>
      <trkpt lat="45.82117" lon="1.28367">
        <ele>292</ele>
        <time>2026-03-30T13:56:03.000Z</time>
      </trkpt>
      <trkpt lat="45.82118" lon="1.28386">
        <ele>292</ele>
        <time>2026-03-30T13:56:17.000Z</time>
      </trkpt>
      <trkpt lat="45.82109" lon="1.28399">
        <ele>292</ele>
        <time>2026-03-30T13:56:33.000Z</time>
      </trkpt>
      <trkpt lat="45.82101" lon="1.28414">
        <ele>293</ele>
        <time>2026-03-30T13:56:48.000Z</time>
      </trkpt>
      <trkpt lat="45.82101" lon="1.28434">
        <ele>293</ele>
        <time>2026-03-30T13:57:09.000Z</time>
      </trkpt>
      <trkpt lat="45.82104" lon="1.28453">
        <ele>294</ele>
        <time>2026-03-30T13:57:31.000Z</time>
      </trkpt>
      <trkpt lat="45.82107" lon="1.28473">
        <ele>294</ele>
        <time>2026-03-30T13:57:48.000Z</time>
      </trkpt>
      <trkpt lat="45.8211" lon="1.28495">
        <ele>295</ele>
        <time>2026-03-30T13:58:05.000Z</time>
      </trkpt>
      <trkpt lat="45.82115" lon="1.28512">
        <ele>296</ele>
        <time>2026-03-30T13:58:24.000Z</time>
      </trkpt>
      <trkpt lat="45.82124" lon="1.28528">
        <ele>296</ele>
        <time>2026-03-30T13:58:41.000Z</time>
      </trkpt>
      <trkpt lat="45.8213" lon="1.28545">
        <ele>296</ele>
        <time>2026-03-30T13:58:56.000Z</time>
      </trkpt>
      <trkpt lat="45.82129" lon="1.28566">
        <ele>296</ele>
        <time>2026-03-30T13:59:13.000Z</time>
      </trkpt>
      <trkpt lat="45.82122" lon="1.28583">
        <ele>296</ele>
        <time>2026-03-30T13:59:26.000Z</time>
      </trkpt>
      <trkpt lat="45.82116" lon="1.286">
        <ele>297</ele>
        <time>2026-03-30T13:59:50.000Z</time>
      </trkpt>
      <trkpt lat="45.82114" lon="1.28619">
        <ele>296</ele>
        <time>2026-03-30T14:00:15.000Z</time>
      </trkpt>
      <trkpt lat="45.82109" lon="1.28638">
        <ele>296</ele>
        <time>2026-03-30T14:00:30.000Z</time>
      </trkpt>
      <trkpt lat="45.82104" lon="1.28656">
        <ele>296</ele>
        <time>2026-03-30T14:00:41.000Z</time>
      </trkpt>
      <trkpt lat="45.82099" lon="1.28675">
        <ele>295</ele>
        <time>2026-03-30T14:00:50.000Z</time>
      </trkpt>
      <trkpt lat="45.82096" lon="1.28694">
        <ele>295</ele>
        <time>2026-03-30T14:00:59.000Z</time>
      </trkpt>
      <trkpt lat="45.82088" lon="1.28708">
        <ele>295</ele>
        <time>2026-03-30T14:01:11.000Z</time>
      </trkpt>
      <trkpt lat="45.82076" lon="1.28719">
        <ele>295</ele>
        <time>2026-03-30T14:01:22.000Z</time>
      </trkpt>
      <trkpt lat="45.82068" lon="1.28735">
        <ele>295</ele>
        <time>2026-03-30T14:01:48.000Z</time>
      </trkpt>
      <trkpt lat="45.8206" lon="1.28752">
        <ele>295</ele>
        <time>2026-03-30T14:01:59.000Z</time>
      </trkpt>
      <trkpt lat="45.82051" lon="1.28768">
        <ele>295</ele>
        <time>2026-03-30T14:02:09.000Z</time>
      </trkpt>
      <trkpt lat="45.82044" lon="1.28786">
        <ele>295</ele>
        <time>2026-03-30T14:02:21.000Z</time>
      </trkpt>
      <trkpt lat="45.82038" lon="1.28804">
        <ele>295</ele>
        <time>2026-03-30T14:02:37.000Z</time>
      </trkpt>
      <trkpt lat="45.82032" lon="1.28822">
        <ele>295</ele>
        <time>2026-03-30T14:02:50.000Z</time>
      </trkpt>
      <trkpt lat="45.82027" lon="1.28842">
        <ele>295</ele>
        <time>2026-03-30T14:03:09.000Z</time>
      </trkpt>
      <trkpt lat="45.82022" lon="1.2886">
        <ele>295</ele>
        <time>2026-03-30T14:03:21.000Z</time>
      </trkpt>
      <trkpt lat="45.82013" lon="1.28873">
        <ele>295</ele>
        <time>2026-03-30T14:03:36.000Z</time>
      </trkpt>
      <trkpt lat="45.82009" lon="1.28891">
        <ele>292</ele>
        <time>2026-03-30T14:03:55.000Z</time>
      </trkpt>
      <trkpt lat="45.82009" lon="1.2891">
        <ele>288</ele>
        <time>2026-03-30T14:04:18.000Z</time>
      </trkpt>
      <trkpt lat="45.82016" lon="1.2893">
        <ele>284</ele>
        <time>2026-03-30T14:04:53.000Z</time>
      </trkpt>
      <trkpt lat="45.82023" lon="1.2895">
        <ele>280</ele>
        <time>2026-03-30T14:05:08.000Z</time>
      </trkpt>
      <trkpt lat="45.82034" lon="1.2896">
        <ele>278</ele>
        <time>2026-03-30T14:05:25.000Z</time>
      </trkpt>
      <trkpt lat="45.82046" lon="1.28952">
        <ele>276</ele>
        <time>2026-03-30T14:06:06.000Z</time>
      </trkpt>
      <trkpt lat="45.8206" lon="1.28946">
        <ele>275</ele>
        <time>2026-03-30T14:06:21.000Z</time>
      </trkpt>
      <trkpt lat="45.82074" lon="1.2894">
        <ele>273</ele>
        <time>2026-03-30T14:06:35.000Z</time>
      </trkpt>
      <trkpt lat="45.82086" lon="1.28929">
        <ele>273</ele>
        <time>2026-03-30T14:06:39.000Z</time>
      </trkpt>
      <trkpt lat="45.82097" lon="1.28918">
        <ele>273</ele>
        <time>2026-03-30T14:06:49.000Z</time>
      </trkpt>
      <trkpt lat="45.82107" lon="1.28906">
        <ele>274</ele>
        <time>2026-03-30T14:07:02.000Z</time>
      </trkpt>
      <trkpt lat="45.82117" lon="1.2889">
        <ele>274</ele>
        <time>2026-03-30T14:07:17.000Z</time>
      </trkpt>
      <trkpt lat="45.82126" lon="1.28873">
        <ele>275</ele>
        <time>2026-03-30T14:07:33.000Z</time>
      </trkpt>
      <trkpt lat="45.82136" lon="1.28858">
        <ele>274</ele>
        <time>2026-03-30T14:07:47.000Z</time>
      </trkpt>
      <trkpt lat="45.82147" lon="1.28846">
        <ele>274</ele>
        <time>2026-03-30T14:08:02.000Z</time>
      </trkpt>
      <trkpt lat="45.82158" lon="1.2883">
        <ele>277</ele>
        <time>2026-03-30T14:08:19.000Z</time>
      </trkpt>
      <trkpt lat="45.82169" lon="1.28817">
        <ele>280</ele>
        <time>2026-03-30T14:08:34.000Z</time>
      </trkpt>
      <trkpt lat="45.82177" lon="1.28801">
        <ele>284</ele>
        <time>2026-03-30T14:08:48.000Z</time>
      </trkpt>
      <trkpt lat="45.82185" lon="1.28782">
        <ele>288</ele>
        <time>2026-03-30T14:10:41.000Z</time>
      </trkpt>
      <trkpt lat="45.82197" lon="1.28772">
        <ele>290</ele>
        <time>2026-03-30T14:12:21.000Z</time>
      </trkpt>
      <trkpt lat="45.82209" lon="1.28762">
        <ele>292</ele>
        <time>2026-03-30T14:12:34.000Z</time>
      </trkpt>
      <trkpt lat="45.8222" lon="1.2875">
        <ele>293</ele>
        <time>2026-03-30T14:12:51.000Z</time>
      </trkpt>
      <trkpt lat="45.8223" lon="1.28736">
        <ele>294</ele>
        <time>2026-03-30T14:13:11.000Z</time>
      </trkpt>
      <trkpt lat="45.82241" lon="1.28727">
        <ele>294</ele>
        <time>2026-03-30T14:13:25.000Z</time>
      </trkpt>
      <trkpt lat="45.82248" lon="1.28709">
        <ele>295</ele>
        <time>2026-03-30T14:13:40.000Z</time>
      </trkpt>
      <trkpt lat="45.82256" lon="1.28694">
        <ele>296</ele>
        <time>2026-03-30T14:13:52.000Z</time>
      </trkpt>
      <trkpt lat="45.82267" lon="1.28683">
        <ele>297</ele>
        <time>2026-03-30T14:14:08.000Z</time>
      </trkpt>
      <trkpt lat="45.8228" lon="1.28675">
        <ele>298</ele>
        <time>2026-03-30T14:14:26.000Z</time>
      </trkpt>
      <trkpt lat="45.82292" lon="1.28667">
        <ele>299</ele>
        <time>2026-03-30T14:14:38.000Z</time>
      </trkpt>
      <trkpt lat="45.82295" lon="1.28649">
        <ele>299</ele>
        <time>2026-03-30T14:14:56.000Z</time>
      </trkpt>
      <trkpt lat="45.82291" lon="1.28629">
        <ele>300</ele>
        <time>2026-03-30T14:15:19.000Z</time>
      </trkpt>
      <trkpt lat="45.82285" lon="1.28612">
        <ele>300</ele>
        <time>2026-03-30T14:15:33.000Z</time>
      </trkpt>
      <trkpt lat="45.82281" lon="1.28591">
        <ele>300</ele>
        <time>2026-03-30T14:16:11.000Z</time>
      </trkpt>
      <trkpt lat="45.82273" lon="1.28575">
        <ele>300</ele>
        <time>2026-03-30T14:16:20.000Z</time>
      </trkpt>
      <trkpt lat="45.82264" lon="1.28556">
        <ele>301</ele>
        <time>2026-03-30T14:16:33.000Z</time>
      </trkpt>
      <trkpt lat="45.82257" lon="1.28536">
        <ele>301</ele>
        <time>2026-03-30T14:16:55.000Z</time>
      </trkpt>
      <trkpt lat="45.82251" lon="1.28519">
        <ele>301</ele>
        <time>2026-03-30T14:17:15.000Z</time>
      </trkpt>
      <trkpt lat="45.8225" lon="1.28499">
        <ele>301</ele>
        <time>2026-03-30T14:17:36.000Z</time>
      </trkpt>
      <trkpt lat="45.82252" lon="1.28479">
        <ele>301</ele>
        <time>2026-03-30T14:17:52.000Z</time>
      </trkpt>
      <trkpt lat="45.82258" lon="1.28461">
        <ele>301</ele>
        <time>2026-03-30T14:18:08.000Z</time>
      </trkpt>
      <trkpt lat="45.8226" lon="1.28442">
        <ele>301</ele>
        <time>2026-03-30T14:18:21.000Z</time>
      </trkpt>
      <trkpt lat="45.82264" lon="1.28422">
        <ele>300</ele>
        <time>2026-03-30T14:18:38.000Z</time>
      </trkpt>
      <trkpt lat="45.82267" lon="1.28404">
        <ele>300</ele>
        <time>2026-03-30T14:18:49.000Z</time>
      </trkpt>
      <trkpt lat="45.82269" lon="1.28383">
        <ele>299</ele>
        <time>2026-03-30T14:19:04.000Z</time>
      </trkpt>
      <trkpt lat="45.8227" lon="1.28363">
        <ele>298</ele>
        <time>2026-03-30T14:19:15.000Z</time>
      </trkpt>
      <trkpt lat="45.82271" lon="1.28342">
        <ele>297</ele>
        <time>2026-03-30T14:19:29.000Z</time>
      </trkpt>
      <trkpt lat="45.8227" lon="1.28322">
        <ele>297</ele>
        <time>2026-03-30T14:19:39.000Z</time>
      </trkpt>
      <trkpt lat="45.82272" lon="1.28302">
        <ele>295</ele>
        <time>2026-03-30T14:19:52.000Z</time>
      </trkpt>
      <trkpt lat="45.8227" lon="1.28282">
        <ele>292</ele>
        <time>2026-03-30T14:20:23.000Z</time>
      </trkpt>
      <trkpt lat="45.8227" lon="1.28262">
        <ele>290</ele>
        <time>2026-03-30T14:20:37.000Z</time>
      </trkpt>
      <trkpt lat="45.82273" lon="1.28242">
        <ele>287</ele>
        <time>2026-03-30T14:20:52.000Z</time>
      </trkpt>
      <trkpt lat="45.82275" lon="1.28222">
        <ele>286</ele>
        <time>2026-03-30T14:21:07.000Z</time>
      </trkpt>
      <trkpt lat="45.8227" lon="1.28203">
        <ele>285</ele>
        <time>2026-03-30T14:21:21.000Z</time>
      </trkpt>
      <trkpt lat="45.82263" lon="1.28185">
        <ele>284</ele>
        <time>2026-03-30T14:21:38.000Z</time>
      </trkpt>
      <trkpt lat="45.82253" lon="1.28168">
        <ele>283</ele>
        <time>2026-03-30T14:21:56.000Z</time>
      </trkpt>
      <trkpt lat="45.82245" lon="1.28146">
        <ele>283</ele>
        <time>2026-03-30T14:22:24.000Z</time>
      </trkpt>
      <trkpt lat="45.82241" lon="1.28126">
        <ele>282</ele>
        <time>2026-03-30T14:22:40.000Z</time>
      </trkpt>
      <trkpt lat="45.82238" lon="1.28107">
        <ele>282</ele>
        <time>2026-03-30T14:22:54.000Z</time>
      </trkpt>
      <trkpt lat="45.82239" lon="1.28085">
        <ele>281</ele>
        <time>2026-03-30T14:23:09.000Z</time>
      </trkpt>
      <trkpt lat="45.82245" lon="1.2806">
        <ele>281</ele>
        <time>2026-03-30T14:23:25.000Z</time>
      </trkpt>
      <trkpt lat="45.82242" lon="1.28029">
        <ele>281</ele>
        <time>2026-03-30T14:23:53.000Z</time>
      </trkpt>
      <trkpt lat="45.82244" lon="1.28008">
        <ele>281</ele>
        <time>2026-03-30T14:24:05.000Z</time>
      </trkpt>
      <trkpt lat="45.82248" lon="1.27989">
        <ele>281</ele>
        <time>2026-03-30T14:24:23.000Z</time>
      </trkpt>
      <trkpt lat="45.82251" lon="1.2797">
        <ele>281</ele>
        <time>2026-03-30T14:24:36.000Z</time>
      </trkpt>
      <trkpt lat="45.82257" lon="1.27954">
        <ele>281</ele>
        <time>2026-03-30T14:24:44.000Z</time>
      </trkpt>
      <trkpt lat="45.82266" lon="1.27938">
        <ele>281</ele>
        <time>2026-03-30T14:24:53.000Z</time>
      </trkpt>
      <trkpt lat="45.82273" lon="1.2792">
        <ele>280</ele>
        <time>2026-03-30T14:25:03.000Z</time>
      </trkpt>
      <trkpt lat="45.82279" lon="1.27903">
        <ele>280</ele>
        <time>2026-03-30T14:25:15.000Z</time>
      </trkpt>
      <trkpt lat="45.82283" lon="1.27885">
        <ele>280</ele>
        <time>2026-03-30T14:25:30.000Z</time>
      </trkpt>
      <trkpt lat="45.82292" lon="1.27868">
        <ele>280</ele>
        <time>2026-03-30T14:25:45.000Z</time>
      </trkpt>
      <trkpt lat="45.82299" lon="1.27852">
        <ele>280</ele>
        <time>2026-03-30T14:26:02.000Z</time>
      </trkpt>
      <trkpt lat="45.82302" lon="1.27832">
        <ele>280</ele>
        <time>2026-03-30T14:26:17.000Z</time>
      </trkpt>
      <trkpt lat="45.82303" lon="1.27811">
        <ele>280</ele>
        <time>2026-03-30T14:26:33.000Z</time>
      </trkpt>
      <trkpt lat="45.82302" lon="1.27791">
        <ele>280</ele>
        <time>2026-03-30T14:26:52.000Z</time>
      </trkpt>
      <trkpt lat="45.82304" lon="1.27773">
        <ele>283</ele>
        <time>2026-03-30T14:26:58.000Z</time>
      </trkpt>
      <trkpt lat="45.82303" lon="1.27754">
        <ele>286</ele>
        <time>2026-03-30T14:27:11.000Z</time>
      </trkpt>
      <trkpt lat="45.82298" lon="1.27734">
        <ele>287</ele>
        <time>2026-03-30T14:27:23.000Z</time>
      </trkpt>
      <trkpt lat="45.82292" lon="1.27716">
        <ele>288</ele>
        <time>2026-03-30T14:27:35.000Z</time>
      </trkpt>
      <trkpt lat="45.8229" lon="1.27696">
        <ele>286</ele>
        <time>2026-03-30T14:27:48.000Z</time>
      </trkpt>
      <trkpt lat="45.82289" lon="1.27676">
        <ele>283</ele>
        <time>2026-03-30T14:28:04.000Z</time>
      </trkpt>
      <trkpt lat="45.82284" lon="1.27655">
        <ele>284</ele>
        <time>2026-03-30T14:28:19.000Z</time>
      </trkpt>
      <trkpt lat="45.82285" lon="1.27634">
        <ele>284</ele>
        <time>2026-03-30T14:28:32.000Z</time>
      </trkpt>
      <trkpt lat="45.82291" lon="1.27616">
        <ele>285</ele>
        <time>2026-03-30T14:28:49.000Z</time>
      </trkpt>
      <trkpt lat="45.82288" lon="1.27595">
        <ele>285</ele>
        <time>2026-03-30T14:29:05.000Z</time>
      </trkpt>
      <trkpt lat="45.82286" lon="1.27574">
        <ele>285</ele>
        <time>2026-03-30T14:29:15.000Z</time>
      </trkpt>
      <trkpt lat="45.8229" lon="1.27555">
        <ele>285</ele>
        <time>2026-03-30T14:29:31.000Z</time>
      </trkpt>
      <trkpt lat="45.82297" lon="1.27539">
        <ele>285</ele>
        <time>2026-03-30T14:29:45.000Z</time>
      </trkpt>
      <trkpt lat="45.82306" lon="1.27523">
        <ele>285</ele>
        <time>2026-03-30T14:29:55.000Z</time>
      </trkpt>
      <trkpt lat="45.8231" lon="1.27502">
        <ele>285</ele>
        <time>2026-03-30T14:30:08.000Z</time>
      </trkpt>
      <trkpt lat="45.8231" lon="1.27477">
        <ele>284</ele>
        <time>2026-03-30T14:30:30.000Z</time>
      </trkpt>
      <trkpt lat="45.82309" lon="1.27439">
        <ele>282</ele>
        <time>2026-03-30T14:30:37.000Z</time>
      </trkpt>
      <trkpt lat="45.82309" lon="1.27418">
        <ele>280</ele>
        <time>2026-03-30T14:30:43.000Z</time>
      </trkpt>
      <trkpt lat="45.82321" lon="1.27412">
        <ele>278</ele>
        <time>2026-03-30T14:30:58.000Z</time>
      </trkpt>
      <trkpt lat="45.82334" lon="1.27408">
        <ele>277</ele>
        <time>2026-03-30T14:31:16.000Z</time>
      </trkpt>
      <trkpt lat="45.82346" lon="1.27396">
        <ele>275</ele>
        <time>2026-03-30T14:31:31.000Z</time>
      </trkpt>
      <trkpt lat="45.82358" lon="1.27383">
        <ele>275</ele>
        <time>2026-03-30T14:31:47.000Z</time>
      </trkpt>
      <trkpt lat="45.8237" lon="1.27371">
        <ele>274</ele>
        <time>2026-03-30T14:32:04.000Z</time>
      </trkpt>
      <trkpt lat="45.82382" lon="1.27363">
        <ele>273</ele>
        <time>2026-03-30T14:32:17.000Z</time>
      </trkpt>
      <trkpt lat="45.82392" lon="1.27349">
        <ele>273</ele>
        <time>2026-03-30T14:32:32.000Z</time>
      </trkpt>
      <trkpt lat="45.824" lon="1.27331">
        <ele>273</ele>
        <time>2026-03-30T14:32:52.000Z</time>
      </trkpt>
      <trkpt lat="45.82411" lon="1.27322">
        <ele>274</ele>
        <time>2026-03-30T14:33:11.000Z</time>
      </trkpt>
      <trkpt lat="45.82414" lon="1.27303">
        <ele>274</ele>
        <time>2026-03-30T14:33:34.000Z</time>
      </trkpt>
      <trkpt lat="45.8241" lon="1.27284">
        <ele>274</ele>
        <time>2026-03-30T14:33:46.000Z</time>
      </trkpt>
      <trkpt lat="45.82403" lon="1.27265">
        <ele>274</ele>
        <time>2026-03-30T14:34:03.000Z</time>
      </trkpt>
      <trkpt lat="45.82395" lon="1.27249">
        <ele>274</ele>
        <time>2026-03-30T14:34:14.000Z</time>
      </trkpt>
      <trkpt lat="45.82383" lon="1.27241">
        <ele>274</ele>
        <time>2026-03-30T14:34:25.000Z</time>
      </trkpt>
      <trkpt lat="45.82375" lon="1.27227">
        <ele>274</ele>
        <time>2026-03-30T14:34:39.000Z</time>
      </trkpt>
      <trkpt lat="45.82365" lon="1.27215">
        <ele>274</ele>
        <time>2026-03-30T14:34:59.000Z</time>
      </trkpt>
      <trkpt lat="45.82357" lon="1.27202">
        <ele>274</ele>
        <time>2026-03-30T14:35:10.000Z</time>
      </trkpt>
      <trkpt lat="45.8236" lon="1.27184">
        <ele>274</ele>
        <time>2026-03-30T14:35:29.000Z</time>
      </trkpt>
      <trkpt lat="45.8236" lon="1.27165">
        <ele>274</ele>
        <time>2026-03-30T14:35:43.000Z</time>
      </trkpt>
      <trkpt lat="45.8236" lon="1.27147">
        <ele>274</ele>
        <time>2026-03-30T14:35:58.000Z</time>
      </trkpt>
      <trkpt lat="45.82353" lon="1.27131">
        <ele>274</ele>
        <time>2026-03-30T14:36:07.000Z</time>
      </trkpt>
      <trkpt lat="45.82346" lon="1.27113">
        <ele>274</ele>
        <time>2026-03-30T14:36:20.000Z</time>
      </trkpt>
      <trkpt lat="45.8234" lon="1.27094">
        <ele>274</ele>
        <time>2026-03-30T14:36:35.000Z</time>
      </trkpt>
      <trkpt lat="45.82335" lon="1.27076">
        <ele>274</ele>
        <time>2026-03-30T14:36:43.000Z</time>
      </trkpt>
      <trkpt lat="45.82328" lon="1.27059">
        <ele>274</ele>
        <time>2026-03-30T14:36:52.000Z</time>
      </trkpt>
      <trkpt lat="45.82328" lon="1.27039">
        <ele>273</ele>
        <time>2026-03-30T14:37:05.000Z</time>
      </trkpt>
      <trkpt lat="45.82327" lon="1.27017">
        <ele>273</ele>
        <time>2026-03-30T14:37:24.000Z</time>
      </trkpt>
      <trkpt lat="45.82327" lon="1.26997">
        <ele>273</ele>
        <time>2026-03-30T14:37:35.000Z</time>
      </trkpt>
      <trkpt lat="45.82334" lon="1.26981">
        <ele>273</ele>
        <time>2026-03-30T14:37:57.000Z</time>
      </trkpt>
      <trkpt lat="45.82343" lon="1.26968">
        <ele>273</ele>
        <time>2026-03-30T14:38:37.000Z</time>
      </trkpt>
      <trkpt lat="45.82353" lon="1.26958">
        <ele>274</ele>
        <time>2026-03-30T14:39:29.000Z</time>
      </trkpt>
      <trkpt lat="45.82366" lon="1.26964">
        <ele>272</ele>
        <time>2026-03-30T14:39:53.000Z</time>
      </trkpt>
      <trkpt lat="45.8238" lon="1.26963">
        <ele>272</ele>
        <time>2026-03-30T14:40:08.000Z</time>
      </trkpt>
      <trkpt lat="45.82392" lon="1.26956">
        <ele>270</ele>
        <time>2026-03-30T14:40:49.000Z</time>
      </trkpt>
      <trkpt lat="45.82406" lon="1.26956">
        <ele>269</ele>
        <time>2026-03-30T14:41:08.000Z</time>
      </trkpt>
      <trkpt lat="45.8242" lon="1.26956">
        <ele>269</ele>
        <time>2026-03-30T14:41:22.000Z</time>
      </trkpt>
      <trkpt lat="45.82434" lon="1.26957">
        <ele>269</ele>
        <time>2026-03-30T14:41:53.000Z</time>
      </trkpt>
      <trkpt lat="45.82448" lon="1.26956">
        <ele>269</ele>
        <time>2026-03-30T14:42:12.000Z</time>
      </trkpt>
      <trkpt lat="45.82463" lon="1.26954">
        <ele>267</ele>
        <time>2026-03-30T14:42:29.000Z</time>
      </trkpt>
      <trkpt lat="45.82477" lon="1.26953">
        <ele>268</ele>
        <time>2026-03-30T14:42:41.000Z</time>
      </trkpt>
      <trkpt lat="45.8249" lon="1.26958">
        <ele>268</ele>
        <time>2026-03-30T14:42:58.000Z</time>
      </trkpt>
      <trkpt lat="45.82505" lon="1.26962">
        <ele>270</ele>
        <time>2026-03-30T14:43:13.000Z</time>
      </trkpt>
      <trkpt lat="45.82519" lon="1.26962">
        <ele>272</ele>
        <time>2026-03-30T14:43:27.000Z</time>
      </trkpt>
      <trkpt lat="45.82533" lon="1.26963">
        <ele>271</ele>
        <time>2026-03-30T14:43:44.000Z</time>
      </trkpt>
      <trkpt lat="45.82547" lon="1.26968">
        <ele>272</ele>
        <time>2026-03-30T14:44:04.000Z</time>
      </trkpt>
      <trkpt lat="45.8256" lon="1.26976">
        <ele>272</ele>
        <time>2026-03-30T14:44:12.000Z</time>
      </trkpt>
      <trkpt lat="45.82575" lon="1.26979">
        <ele>272</ele>
        <time>2026-03-30T14:44:24.000Z</time>
      </trkpt>
      <trkpt lat="45.8259" lon="1.26979">
        <ele>272</ele>
        <time>2026-03-30T14:44:39.000Z</time>
      </trkpt>
      <trkpt lat="45.82605" lon="1.26982">
        <ele>272</ele>
        <time>2026-03-30T14:44:51.000Z</time>
      </trkpt>
      <trkpt lat="45.82619" lon="1.26985">
        <ele>272</ele>
        <time>2026-03-30T14:45:04.000Z</time>
      </trkpt>
      <trkpt lat="45.82632" lon="1.26989">
        <ele>271</ele>
        <time>2026-03-30T14:45:17.000Z</time>
      </trkpt>
      <trkpt lat="45.82647" lon="1.26993">
        <ele>271</ele>
        <time>2026-03-30T14:45:30.000Z</time>
      </trkpt>
      <trkpt lat="45.82661" lon="1.26998">
        <ele>271</ele>
        <time>2026-03-30T14:45:43.000Z</time>
      </trkpt>
      <trkpt lat="45.82675" lon="1.27006">
        <ele>271</ele>
        <time>2026-03-30T14:45:58.000Z</time>
      </trkpt>
      <trkpt lat="45.82688" lon="1.27011">
        <ele>271</ele>
        <time>2026-03-30T14:46:31.000Z</time>
      </trkpt>
      <trkpt lat="45.82702" lon="1.27016">
        <ele>271</ele>
        <time>2026-03-30T14:46:52.000Z</time>
      </trkpt>
      <trkpt lat="45.82716" lon="1.27021">
        <ele>271</ele>
        <time>2026-03-30T14:47:08.000Z</time>
      </trkpt>
      <trkpt lat="45.82729" lon="1.27024">
        <ele>271</ele>
        <time>2026-03-30T14:47:19.000Z</time>
      </trkpt>
      <trkpt lat="45.82742" lon="1.27028">
        <ele>271</ele>
        <time>2026-03-30T14:47:31.000Z</time>
      </trkpt>
      <trkpt lat="45.82755" lon="1.27033">
        <ele>271</ele>
        <time>2026-03-30T14:47:46.000Z</time>
      </trkpt>
      <trkpt lat="45.82769" lon="1.27043">
        <ele>271</ele>
        <time>2026-03-30T14:48:01.000Z</time>
      </trkpt>
      <trkpt lat="45.82781" lon="1.27052">
        <ele>272</ele>
        <time>2026-03-30T14:48:14.000Z</time>
      </trkpt>
      <trkpt lat="45.82793" lon="1.27062">
        <ele>271</ele>
        <time>2026-03-30T14:48:33.000Z</time>
      </trkpt>
      <trkpt lat="45.82803" lon="1.27075">
        <ele>272</ele>
        <time>2026-03-30T14:48:48.000Z</time>
      </trkpt>
      <trkpt lat="45.82814" lon="1.2709">
        <ele>272</ele>
        <time>2026-03-30T14:49:05.000Z</time>
      </trkpt>
      <trkpt lat="45.82822" lon="1.27105">
        <ele>273</ele>
        <time>2026-03-30T14:49:20.000Z</time>
      </trkpt>
      <trkpt lat="45.82831" lon="1.27121">
        <ele>273</ele>
        <time>2026-03-30T14:49:35.000Z</time>
      </trkpt>
      <trkpt lat="45.82842" lon="1.27133">
        <ele>273</ele>
        <time>2026-03-30T14:49:47.000Z</time>
      </trkpt>
      <trkpt lat="45.82853" lon="1.2714">
        <ele>273</ele>
        <time>2026-03-30T14:49:57.000Z</time>
      </trkpt>
      <trkpt lat="45.82866" lon="1.27133">
        <ele>272</ele>
        <time>2026-03-30T14:50:08.000Z</time>
      </trkpt>
      <trkpt lat="45.82878" lon="1.27123">
        <ele>272</ele>
        <time>2026-03-30T14:50:19.000Z</time>
      </trkpt>
      <trkpt lat="45.82887" lon="1.27108">
        <ele>272</ele>
        <time>2026-03-30T14:50:31.000Z</time>
      </trkpt>
      <trkpt lat="45.82894" lon="1.2709">
        <ele>272</ele>
        <time>2026-03-30T14:50:47.000Z</time>
      </trkpt>
      <trkpt lat="45.82902" lon="1.27073">
        <ele>272</ele>
        <time>2026-03-30T14:51:01.000Z</time>
      </trkpt>
      <trkpt lat="45.8291" lon="1.27057">
        <ele>272</ele>
        <time>2026-03-30T14:52:25.000Z</time>
      </trkpt>
      <trkpt lat="45.82918" lon="1.27041">
        <ele>272</ele>
        <time>2026-03-30T14:52:39.000Z</time>
      </trkpt>
      <trkpt lat="45.82925" lon="1.27024">
        <ele>272</ele>
        <time>2026-03-30T14:52:57.000Z</time>
      </trkpt>
      <trkpt lat="45.82934" lon="1.27009">
        <ele>272</ele>
        <time>2026-03-30T14:53:13.000Z</time>
      </trkpt>
      <trkpt lat="45.82944" lon="1.26997">
        <ele>272</ele>
        <time>2026-03-30T14:53:54.000Z</time>
      </trkpt>
      <trkpt lat="45.82956" lon="1.27001">
        <ele>272</ele>
        <time>2026-03-30T14:54:05.000Z</time>
      </trkpt>
      <trkpt lat="45.82966" lon="1.27013">
        <ele>272</ele>
        <time>2026-03-30T14:54:19.000Z</time>
      </trkpt>
      <trkpt lat="45.82978" lon="1.27022">
        <ele>272</ele>
        <time>2026-03-30T14:54:32.000Z</time>
      </trkpt>
      <trkpt lat="45.82988" lon="1.27035">
        <ele>272</ele>
        <time>2026-03-30T14:54:45.000Z</time>
      </trkpt>
      <trkpt lat="45.82995" lon="1.27052">
        <ele>272</ele>
        <time>2026-03-30T14:55:01.000Z</time>
      </trkpt>
      <trkpt lat="45.83" lon="1.2707">
        <ele>272</ele>
        <time>2026-03-30T14:55:15.000Z</time>
      </trkpt>
      <trkpt lat="45.83006" lon="1.27087">
        <ele>272</ele>
        <time>2026-03-30T14:55:28.000Z</time>
      </trkpt>
      <trkpt lat="45.83011" lon="1.27105">
        <ele>272</ele>
        <time>2026-03-30T14:55:43.000Z</time>
      </trkpt>
      <trkpt lat="45.8302" lon="1.27123">
        <ele>272</ele>
        <time>2026-03-30T14:55:58.000Z</time>
      </trkpt>
      <trkpt lat="45.83029" lon="1.2714">
        <ele>273</ele>
        <time>2026-03-30T14:56:12.000Z</time>
      </trkpt>
      <trkpt lat="45.83037" lon="1.27158">
        <ele>274</ele>
        <time>2026-03-30T14:56:27.000Z</time>
      </trkpt>
      <trkpt lat="45.83046" lon="1.27173">
        <ele>276</ele>
        <time>2026-03-30T14:56:40.000Z</time>
      </trkpt>
      <trkpt lat="45.83056" lon="1.27186">
        <ele>277</ele>
        <time>2026-03-30T14:56:53.000Z</time>
      </trkpt>
      <trkpt lat="45.83066" lon="1.272">
        <ele>277</ele>
        <time>2026-03-30T14:57:06.000Z</time>
      </trkpt>
      <trkpt lat="45.83077" lon="1.27215">
        <ele>281</ele>
        <time>2026-03-30T14:57:19.000Z</time>
      </trkpt>
      <trkpt lat="45.83088" lon="1.27227">
        <ele>281</ele>
        <time>2026-03-30T14:57:33.000Z</time>
      </trkpt>
      <trkpt lat="45.83097" lon="1.27244">
        <ele>281</ele>
        <time>2026-03-30T14:57:49.000Z</time>
      </trkpt>
      <trkpt lat="45.83103" lon="1.27261">
        <ele>272</ele>
        <time>2026-03-30T14:58:05.000Z</time>
      </trkpt>
    </trkseg>
  </trk>
</gpx>